createdAt,value
2016-04-14T13:43:53.026Z,50.7
2016-04-14T13:44:03.092Z,88.5
2016-04-14T13:44:13.092Z,91.9
2016-04-14T13:44:23.107Z,0
2016-04-14T13:44:33.264Z,91.5
2016-04-14T13:44:43.107Z,91.9
2016-04-14T13:44:53.107Z,72
2016-04-14T13:45:03.094Z,0
2016-04-14T13:45:13.109Z,91.9
2016-04-14T13:45:23.109Z,88.6
2016-04-14T13:45:33.109Z,86.7
2016-04-14T13:45:43.109Z,0
2016-04-14T13:45:53.109Z,0
2016-04-14T13:46:03.112Z,0
2016-04-14T13:46:13.597Z,0
2016-04-14T13:46:23.128Z,91.9
2016-04-14T13:46:33.128Z,91.9
2016-04-14T13:46:43.128Z,91.9
2016-04-14T13:46:53.128Z,0
2016-04-14T13:47:03.130Z,91.9
2016-04-14T13:47:13.130Z,65.7
2016-04-14T13:47:23.130Z,0
2016-04-14T13:47:33.130Z,13.7
2016-04-14T13:47:43.130Z,0
2016-04-14T13:47:54.302Z,0
2016-04-14T13:48:03.149Z,0
2016-04-14T13:48:13.133Z,0
2016-04-14T13:48:23.570Z,0
2016-04-14T13:48:33.149Z,0
2016-04-14T13:49:03.964Z,0
2016-04-14T13:49:13.980Z,0
2016-04-14T13:49:23.792Z,0
2016-04-14T13:49:33.948Z,0
2016-04-14T13:49:44.652Z,0
2016-04-14T13:49:53.948Z,0
2016-04-14T13:50:04.373Z,0
2016-04-14T13:50:13.967Z,0
2016-04-14T13:50:23.967Z,0
2016-04-14T13:50:33.967Z,0
2016-04-14T13:50:43.967Z,0
2016-04-14T13:50:53.967Z,0
2016-04-14T13:51:04.376Z,0
2016-04-14T13:51:14.251Z,0
2016-04-14T13:51:24.486Z,0
2016-04-14T13:51:33.986Z,0
2016-04-14T13:51:44.376Z,0
2016-04-14T13:51:53.986Z,0
2016-04-14T13:52:03.988Z,0
2016-04-14T13:52:14.003Z,0
2016-04-14T13:52:24.003Z,0
2016-04-14T13:52:34.003Z,0
2016-04-14T13:52:44.003Z,0
2016-04-14T13:52:53.988Z,0
2016-04-14T13:53:04.022Z,0
2016-04-14T13:53:14.006Z,0
2016-04-14T13:53:32.381Z,0
2016-04-14T13:53:42.366Z,0
2016-04-14T13:53:52.381Z,0
2016-04-14T13:54:02.383Z,0
2016-04-14T13:54:12.383Z,0
2016-04-14T13:57:56.266Z,0
2016-04-14T13:58:07.129Z,0
2016-04-14T13:58:18.113Z,0
2016-04-14T13:58:27.129Z,0
2016-04-14T14:05:16.195Z,50.3
2016-04-14T14:05:26.429Z,44.5
2016-04-14T14:05:36.023Z,41.5
2016-04-14T14:05:45.929Z,41.6
2016-04-14T14:05:55.898Z,38.9
2016-04-14T14:06:05.901Z,37.5
2016-04-14T14:06:16.416Z,38.9
2016-04-14T14:06:26.666Z,0.2
2016-04-14T14:06:36.432Z,0.2
2016-04-14T14:06:45.963Z,0.2
2016-04-14T14:06:56.276Z,1
2016-04-14T14:07:05.966Z,0.5
2016-04-14T14:07:15.919Z,0.2
2016-04-14T14:07:25.997Z,0.1
2016-04-14T14:07:35.919Z,0.2
2016-04-14T14:07:45.919Z,0.2
2016-04-14T14:07:55.919Z,0.2
2016-04-14T14:08:06.625Z,10.8
2016-04-14T14:08:15.985Z,7.2
2016-04-14T14:08:25.938Z,12.5
2016-04-14T14:08:36.422Z,11
2016-04-14T14:08:46.735Z,2
2016-04-14T14:08:56.000Z,0.8
2016-04-14T14:09:05.956Z,0.5
2016-04-14T14:09:16.284Z,0.4
2016-04-14T14:09:25.956Z,0.2
2016-04-14T14:09:36.612Z,0.1
2016-04-14T14:09:45.971Z,1.5
2016-04-14T14:09:55.956Z,0.2
2016-04-14T14:10:05.959Z,0.2
2016-04-14T14:10:16.396Z,0.2
2016-04-14T14:10:25.959Z,0.2
2016-04-14T14:10:35.974Z,0.2
2016-04-14T14:10:45.974Z,0.2
2016-04-14T14:10:55.974Z,0.2
2016-04-14T14:11:05.992Z,0.2
2016-04-14T14:11:15.976Z,0.2
2016-04-14T14:11:25.992Z,0.2
2016-04-14T14:11:36.570Z,0.2
2016-04-14T14:11:45.992Z,0.2
2016-04-14T14:11:55.992Z,0.2
2016-04-14T14:12:05.979Z,0.2
2016-04-14T14:12:15.995Z,0.2
2016-04-14T14:12:25.995Z,0.2
2016-04-14T14:12:36.182Z,0.2
2016-04-14T14:12:45.995Z,0.2
2016-04-14T14:12:55.995Z,0.2
2016-04-14T14:13:06.012Z,0.2
2016-04-14T14:13:16.012Z,0.2
2016-04-14T14:13:26.012Z,0.2
2016-04-14T14:13:36.012Z,0.2
2016-04-14T14:13:46.028Z,0.1
2016-04-14T14:13:56.012Z,0.2
2016-04-14T14:14:06.172Z,0.2
2016-04-14T14:14:16.031Z,0.2
2016-04-14T14:14:26.015Z,0.2
2016-04-14T14:14:36.031Z,0.2
2016-04-14T14:14:46.031Z,0.2
2016-04-14T14:58:18.935Z,38.8
2016-04-14T14:58:28.966Z,26.3
2016-04-14T14:58:38.951Z,24.1
2016-04-14T14:58:48.935Z,30.8
2016-04-14T14:58:58.938Z,0
2016-04-14T14:59:09.751Z,0
2016-04-14T14:59:19.188Z,0
2016-04-14T14:59:28.954Z,0
2016-04-14T14:59:38.969Z,0.7
2016-04-14T14:59:48.969Z,0
2016-04-14T14:59:58.971Z,0
2016-04-14T15:00:08.956Z,0
2016-04-14T15:00:18.971Z,0
2016-04-14T15:00:28.971Z,0
2016-04-14T15:00:38.971Z,0
2016-04-14T15:00:48.971Z,0
2016-04-14T15:00:58.974Z,0
2016-04-14T15:01:08.974Z,0
2016-04-14T15:01:18.990Z,0
2016-04-14T15:01:28.974Z,0
2016-04-14T15:01:38.990Z,0
2016-04-14T15:01:48.990Z,0
2016-04-14T15:01:59.008Z,0
2016-04-14T15:02:09.008Z,0
2016-04-14T15:02:18.992Z,0
2016-04-14T15:02:29.008Z,0
2016-04-14T15:02:39.008Z,0
2016-04-14T15:02:49.008Z,0
2016-04-14T15:02:59.011Z,0
2016-04-14T15:03:09.011Z,0
2016-04-14T15:03:19.011Z,0
2016-04-14T15:11:04.923Z,4.8
2016-04-14T15:11:15.267Z,4.3
2016-04-14T15:11:25.267Z,6.8
2016-04-14T15:11:35.267Z,3
2016-04-14T15:11:45.267Z,0
2016-04-14T15:11:55.267Z,0
2016-04-14T15:12:05.269Z,6
2016-04-14T15:12:15.269Z,4.5
2016-04-14T15:12:25.269Z,0
2016-04-14T15:12:35.285Z,0
2016-04-14T15:12:45.269Z,0
2016-04-14T15:12:55.285Z,7.2
2016-04-14T15:47:39.051Z,0
2016-04-14T15:47:49.051Z,0
2016-04-14T15:47:59.054Z,0
2016-04-14T15:48:09.054Z,0
2016-04-14T15:48:19.054Z,0
2016-04-14T15:48:29.054Z,0
2016-04-14T15:48:39.054Z,0
2016-04-14T15:48:49.054Z,0
2016-04-14T15:48:59.057Z,0
2016-04-14T15:49:09.057Z,0
2016-04-14T15:49:19.057Z,0
2016-04-14T15:49:29.072Z,0
2016-04-14T15:49:39.057Z,0.2
2016-04-14T15:49:49.057Z,0.1
2016-04-14T15:49:59.075Z,0
2016-04-14T15:50:09.122Z,0
2016-04-14T15:50:19.153Z,0
2016-04-14T15:50:29.716Z,0
2016-04-14T15:50:39.075Z,0
2016-04-14T15:50:49.060Z,0
2016-04-14T15:50:59.078Z,0
2016-04-14T15:51:09.625Z,0
2016-04-14T15:51:19.078Z,0
2016-04-14T15:51:29.078Z,0
2016-04-14T15:51:39.078Z,0
2016-04-14T15:51:49.094Z,0
2016-04-14T15:51:59.096Z,0
2016-04-14T15:52:09.096Z,0.2
2016-04-14T15:52:19.096Z,0.1
2016-04-14T15:52:29.440Z,0.2
2016-04-14T15:52:39.096Z,0.2
2016-04-14T15:52:49.096Z,0
2016-04-14T15:52:59.114Z,0
2016-04-14T15:53:09.161Z,0
2016-04-14T15:53:19.114Z,0
2016-04-14T15:53:29.739Z,0
2016-04-14T15:53:39.114Z,0
2016-04-14T15:53:49.114Z,0
2016-04-14T15:53:59.116Z,0
2016-04-14T15:54:09.116Z,0
2016-04-14T15:54:19.132Z,0
2016-04-14T15:54:29.132Z,0
2016-04-14T15:54:39.132Z,0
2016-04-14T15:54:49.148Z,0
2016-04-14T15:54:59.135Z,0
2016-04-14T15:55:08.994Z,0
2016-04-14T15:55:19.151Z,0
2016-04-14T15:55:29.244Z,0
2016-04-14T15:55:39.151Z,0
2016-04-14T15:55:49.182Z,0
2016-04-14T15:55:59.153Z,0
2016-04-14T15:56:09.153Z,0
2016-04-14T15:56:19.168Z,0
2016-04-14T15:56:29.168Z,0
2016-04-14T15:56:39.200Z,0
2016-04-14T15:56:49.168Z,0
2016-04-14T15:56:59.171Z,0
2016-04-14T15:57:09.031Z,0.1
2016-04-14T15:57:19.171Z,0
2016-04-14T15:57:29.187Z,0
2016-04-14T15:57:39.187Z,0
2016-04-14T15:57:49.171Z,0
2016-04-14T15:57:59.174Z,0
2016-04-14T15:58:09.424Z,0
2016-04-14T15:58:19.221Z,0
2016-04-14T15:58:29.081Z,0
2016-04-14T15:58:39.206Z,0
2016-04-14T15:58:49.237Z,0
2016-04-14T15:58:59.209Z,0.1
2016-04-14T15:59:09.209Z,0
2016-04-14T15:59:19.209Z,0
2016-04-14T15:59:29.209Z,0
2016-04-14T15:59:39.209Z,0.1
2016-04-14T15:59:49.224Z,0
2016-04-14T15:59:59.227Z,0
2016-04-14T16:00:09.227Z,0
2016-04-14T16:00:19.227Z,0
2016-04-14T16:00:29.227Z,0
2016-04-14T16:00:39.227Z,0
2016-04-14T16:00:49.227Z,0
2016-04-14T16:00:59.245Z,0
2016-04-14T16:01:09.089Z,0
2016-04-14T16:01:19.245Z,0
2016-04-14T16:01:29.245Z,0
2016-04-14T16:01:39.245Z,0
2016-04-14T16:01:49.245Z,0
2016-04-14T16:01:59.248Z,0
2016-04-14T16:02:09.279Z,0
2016-04-14T16:02:19.263Z,0
2016-04-14T16:02:29.263Z,0
2016-04-14T16:02:39.263Z,0
2016-04-14T16:02:49.263Z,0
2016-04-14T16:02:59.328Z,0
2016-04-14T16:03:09.281Z,0
2016-04-14T16:03:19.328Z,0
2016-04-14T16:03:29.297Z,0
2016-04-14T16:03:39.281Z,0
2016-04-14T16:03:49.297Z,0
2016-04-14T16:03:59.300Z,0
2016-04-14T16:04:09.300Z,0
2016-04-14T16:04:19.300Z,0
2016-04-14T16:04:29.300Z,0
2016-04-14T16:04:39.300Z,0
2016-04-14T16:04:49.315Z,0
2016-04-14T16:04:59.303Z,0
2016-04-14T16:05:09.303Z,0
2016-04-14T16:05:19.318Z,0
2016-04-14T16:05:29.318Z,0
2016-04-14T16:05:39.334Z,0
2016-04-14T16:05:49.334Z,0
2016-04-14T16:05:59.320Z,0
2016-04-14T16:06:09.336Z,0
2016-04-14T16:06:19.336Z,0
2016-04-14T16:06:29.336Z,0
2016-04-14T16:06:39.336Z,0
2016-04-14T16:06:49.336Z,0
2016-04-14T16:06:59.355Z,0
2016-04-14T16:07:09.355Z,0
2016-04-14T16:07:19.370Z,0
2016-04-14T16:07:29.198Z,0
2016-04-14T16:07:39.370Z,0
2016-04-14T16:07:49.370Z,0
2016-04-14T16:07:59.372Z,0
2016-04-14T16:08:09.372Z,0
2016-04-14T16:08:19.372Z,0
2016-04-14T16:08:29.372Z,0
2016-04-14T16:08:39.372Z,0.3
2016-04-14T16:08:49.372Z,0.3
2016-04-14T16:08:59.235Z,0
2016-04-14T16:09:09.531Z,0
2016-04-14T16:09:19.391Z,0
2016-04-14T16:09:29.391Z,0
2016-04-14T16:09:39.406Z,0
2016-04-14T16:09:49.391Z,0
2016-04-14T16:09:59.409Z,0.1
2016-04-14T16:10:09.409Z,0
2016-04-14T16:10:19.425Z,0
2016-04-14T16:10:29.425Z,0
2016-04-14T16:10:39.425Z,0.1
2016-04-14T16:10:49.425Z,0
2016-04-14T16:10:59.428Z,0
2016-04-14T16:11:09.428Z,0
2016-04-14T16:11:19.428Z,0.2
2016-04-14T16:11:29.444Z,0.1
2016-04-14T16:11:39.444Z,0
2016-04-14T16:11:49.444Z,0
2016-04-14T16:11:59.447Z,0
2016-04-14T16:12:09.447Z,0
2016-04-14T16:12:19.447Z,0
2016-04-14T16:12:29.462Z,0
2016-04-14T16:12:39.462Z,0
2016-04-14T16:12:49.462Z,0
2016-04-14T16:12:59.355Z,0
2016-04-14T16:13:09.417Z,0
2016-04-14T16:13:19.480Z,0
2016-04-14T16:13:29.480Z,0
2016-04-14T16:13:39.496Z,0
2016-04-14T16:13:49.480Z,0
2016-04-14T16:13:59.499Z,0
2016-04-14T16:14:09.499Z,0
2016-04-14T16:14:19.499Z,0
2016-04-14T16:14:29.499Z,0
2016-04-14T16:14:39.499Z,0
2016-04-14T16:14:49.561Z,0
2016-04-14T16:14:59.516Z,0
2016-04-14T16:15:09.516Z,0
2016-04-14T16:15:19.516Z,0
2016-04-14T16:15:29.360Z,0
2016-04-14T16:15:39.516Z,0
2016-04-14T16:15:49.532Z,0
2016-04-14T16:15:59.535Z,0
2016-04-14T16:16:09.535Z,0
2016-04-14T16:16:19.550Z,0
2016-04-14T16:16:29.535Z,0
2016-04-14T16:16:39.550Z,0
2016-04-14T16:16:49.550Z,0
2016-04-14T16:16:59.538Z,0
2016-04-14T16:17:09.710Z,0
2016-04-14T16:17:19.553Z,0
2016-04-14T16:17:29.663Z,0
2016-04-14T16:17:39.569Z,0
2016-04-14T16:17:49.616Z,0
2016-04-14T16:17:59.603Z,0
2016-04-14T16:18:09.572Z,0
2016-04-14T16:18:19.588Z,0
2016-04-14T16:18:29.635Z,0
2016-04-14T16:18:39.588Z,0
2016-04-14T16:18:50.322Z,0
2016-04-14T16:18:59.591Z,0
2016-04-14T16:19:09.606Z,0
2016-04-14T16:19:19.606Z,0
2016-04-14T16:19:29.606Z,0
2016-04-14T16:19:39.606Z,0
2016-04-14T16:19:49.606Z,0
2016-04-14T16:19:59.608Z,0
2016-04-14T16:20:09.608Z,0
2016-04-14T16:20:19.624Z,0
2016-04-14T16:20:29.624Z,0
2016-04-14T16:20:39.624Z,0.1
2016-04-14T16:20:49.640Z,0
2016-04-14T16:20:59.643Z,0.1
2016-04-14T16:21:09.627Z,0
2016-04-14T16:21:19.643Z,0
2016-04-14T16:21:29.643Z,0
2016-04-14T16:21:39.643Z,0
2016-04-14T16:21:49.643Z,0
2016-04-14T16:21:59.646Z,0.1
2016-04-14T16:22:09.661Z,0
2016-04-14T16:22:19.661Z,0
2016-04-14T16:22:29.661Z,0
2016-04-14T16:22:39.661Z,0
2016-04-14T16:22:49.661Z,0
2016-04-14T16:22:59.679Z,0
2016-04-14T16:23:09.679Z,0
2016-04-14T16:23:19.679Z,0
2016-04-14T16:23:29.679Z,0
2016-04-14T16:23:39.679Z,0
2016-04-14T16:23:49.679Z,0
2016-04-14T16:23:59.697Z,0
2016-04-14T16:24:09.697Z,0
2016-04-14T16:24:19.697Z,0
2016-04-14T16:24:29.697Z,0
2016-04-14T16:24:39.713Z,0
2016-04-14T16:24:49.713Z,0
2016-04-14T16:24:59.715Z,0
2016-04-14T16:25:09.574Z,0
2016-04-14T16:25:19.731Z,0
2016-04-14T16:25:29.715Z,0
2016-04-14T16:25:39.731Z,0
2016-04-14T16:25:49.731Z,0
2016-04-14T16:25:59.750Z,0
2016-04-14T16:26:09.735Z,0
2016-04-14T16:26:19.750Z,0.1
2016-04-14T16:26:29.750Z,0
2016-04-14T16:26:39.750Z,0
2016-04-14T16:26:49.766Z,0
2016-04-14T16:26:59.768Z,0
2016-04-14T16:27:09.768Z,0
2016-04-14T16:27:19.752Z,0
2016-04-14T16:27:29.768Z,0
2016-04-14T16:27:39.784Z,0
2016-04-14T16:27:49.768Z,0
2016-04-14T16:27:59.787Z,0
2016-04-14T16:28:09.505Z,0
2016-04-14T16:28:19.990Z,0
2016-04-14T16:28:29.787Z,0
2016-04-14T16:28:39.802Z,0
2016-04-14T16:28:49.787Z,0
2016-04-14T16:28:59.804Z,0
2016-04-14T16:29:09.804Z,0
2016-04-14T16:29:19.804Z,0
2016-04-14T16:29:29.804Z,0
2016-04-14T16:29:39.835Z,0
2016-04-14T16:29:49.820Z,0
2016-04-14T16:29:59.823Z,0
2016-04-14T16:30:09.948Z,0
2016-04-14T16:30:19.823Z,0
2016-04-14T16:30:29.979Z,0
2016-04-14T16:30:39.838Z,0
2016-04-14T16:30:49.838Z,0
2016-04-14T16:30:59.841Z,0
2016-04-14T16:31:09.888Z,0
2016-04-14T16:31:19.841Z,0
2016-04-14T16:31:29.857Z,0
2016-04-14T16:31:39.873Z,0
2016-04-14T16:31:49.841Z,0
2016-04-14T16:31:59.859Z,0
2016-04-14T16:32:09.859Z,0
2016-04-14T16:32:19.906Z,0
2016-04-14T16:32:29.859Z,0
2016-04-14T16:32:39.922Z,0
2016-04-14T16:32:49.859Z,0
2016-04-14T16:32:59.878Z,0
2016-04-14T16:33:09.878Z,0
2016-04-14T16:33:19.878Z,0
2016-04-14T16:33:29.940Z,0
2016-04-14T16:33:39.893Z,0
2016-04-14T16:33:49.893Z,0
2016-04-14T16:33:59.895Z,0
2016-04-14T16:34:09.911Z,0
2016-04-14T16:34:19.911Z,0
2016-04-14T16:34:29.911Z,0
2016-04-14T16:34:39.911Z,0
2016-04-14T16:34:49.911Z,0
2016-04-14T16:34:59.805Z,0
2016-04-14T16:35:09.914Z,0
2016-04-14T16:35:20.258Z,0
2016-04-14T16:35:29.945Z,0
2016-04-14T16:35:39.930Z,0
2016-04-14T16:35:49.945Z,0
2016-04-14T16:35:59.933Z,0
2016-04-14T16:36:09.964Z,0
2016-04-14T16:36:19.948Z,0
2016-04-14T16:36:29.948Z,0
2016-04-14T16:36:39.948Z,0
2016-04-14T16:36:49.948Z,0.1
2016-04-14T16:36:59.950Z,0
2016-04-14T16:37:09.966Z,0
2016-04-14T16:37:19.966Z,0.1
2016-04-14T16:37:29.966Z,0
2016-04-14T16:37:39.966Z,0
2016-04-14T16:37:49.966Z,0
2016-04-14T16:37:59.969Z,0
2016-04-14T16:38:10.031Z,0
2016-04-14T16:38:19.984Z,0
2016-04-14T16:38:29.984Z,0
2016-04-14T16:38:40.000Z,0
2016-04-14T16:38:49.984Z,0
2016-04-14T16:39:00.003Z,0
2016-04-14T16:39:10.003Z,0
2016-04-14T16:39:20.003Z,0
2016-04-14T16:39:30.019Z,0
2016-04-14T16:39:40.019Z,0
2016-04-14T16:39:50.003Z,0
2016-04-14T16:40:00.022Z,0
2016-04-14T16:40:10.022Z,0
2016-04-14T16:40:20.084Z,0
2016-04-14T16:40:29.865Z,0
2016-04-14T16:40:40.022Z,0
2016-04-14T16:40:49.897Z,0
2016-04-14T16:41:00.039Z,0
2016-04-14T16:41:10.039Z,0
2016-04-14T16:41:20.039Z,0
2016-04-14T16:41:30.039Z,0
2016-04-14T16:41:40.055Z,0
2016-04-14T16:41:50.055Z,0
2016-04-14T16:42:00.058Z,0
2016-04-14T16:42:10.058Z,0
2016-04-14T16:42:20.058Z,0
2016-04-14T16:42:30.074Z,0
2016-04-14T16:42:40.214Z,0
2016-04-14T16:42:50.120Z,0
2016-04-14T16:43:00.077Z,0
2016-04-14T16:43:10.061Z,0
2016-04-14T16:43:19.967Z,0
2016-04-14T16:43:30.092Z,0
2016-04-14T16:43:39.936Z,0
2016-04-14T16:43:50.092Z,0
2016-04-14T16:44:00.095Z,0
2016-04-14T16:44:10.111Z,0
2016-04-14T16:44:20.095Z,0
2016-04-14T16:44:30.095Z,0
2016-04-14T16:44:40.111Z,0
2016-04-14T16:44:50.111Z,0
2016-04-14T16:45:00.114Z,0
2016-04-14T16:45:10.129Z,0
2016-04-14T16:45:20.129Z,0
2016-04-14T16:45:30.114Z,0
2016-04-14T16:45:40.129Z,0
2016-04-14T16:45:50.192Z,0
2016-04-14T16:46:00.131Z,0
2016-04-14T16:46:10.131Z,0
2016-04-14T16:46:20.147Z,0
2016-04-14T16:46:30.163Z,0
2016-04-14T16:46:40.147Z,0
2016-04-14T16:46:50.147Z,0
2016-04-14T16:47:00.150Z,0
2016-04-14T16:47:10.150Z,0
2016-04-14T16:47:20.150Z,0
2016-04-14T16:47:30.197Z,0
2016-04-14T16:47:40.166Z,0
2016-04-14T16:47:50.166Z,0
2016-04-14T16:48:00.215Z,0
2016-04-14T16:48:10.230Z,0
2016-04-14T16:48:20.340Z,0
2016-04-14T16:48:30.183Z,0
2016-04-14T16:48:40.183Z,0
2016-04-14T16:48:50.183Z,0
2016-04-14T16:49:00.186Z,0
2016-04-14T16:49:10.202Z,0
2016-04-14T16:49:20.202Z,0
2016-04-14T16:49:30.202Z,0
2016-04-14T16:49:40.264Z,0
2016-04-14T16:49:50.218Z,0
2016-04-14T16:50:00.204Z,0
2016-04-14T16:50:10.220Z,0
2016-04-14T16:50:20.220Z,0
2016-04-14T16:50:30.220Z,0
2016-04-14T16:50:40.220Z,0
2016-04-14T16:50:50.220Z,0
2016-04-14T16:51:00.254Z,0
2016-04-14T16:51:10.238Z,0
2016-04-14T16:51:20.238Z,0
2016-04-14T16:51:30.254Z,0
2016-04-14T16:51:40.238Z,0
2016-04-14T16:51:50.254Z,0
2016-04-14T16:52:00.257Z,0
2016-04-14T16:52:10.257Z,0
2016-04-14T16:52:20.257Z,0
2016-04-14T16:52:30.257Z,0
2016-04-14T16:52:40.632Z,0
2016-04-14T16:52:50.257Z,0
2016-04-14T16:53:00.275Z,0
2016-04-14T16:53:10.275Z,0
2016-04-14T16:53:20.275Z,0
2016-04-14T16:53:30.275Z,0
2016-04-14T16:53:40.291Z,0
2016-04-14T16:53:50.291Z,0
2016-04-14T16:54:00.278Z,0
2016-04-14T16:54:10.294Z,0
2016-04-14T16:54:20.294Z,0
2016-04-14T16:54:30.294Z,0
2016-04-14T16:54:40.310Z,0
2016-04-14T16:54:50.310Z,0
2016-04-14T16:55:00.313Z,0
2016-04-14T16:55:10.313Z,0
2016-04-14T16:55:20.313Z,0
2016-04-14T16:55:30.328Z,0
2016-04-14T16:55:40.375Z,0
2016-04-14T16:55:50.328Z,0
2016-04-14T16:56:00.330Z,0
2016-04-14T16:56:10.330Z,0
2016-04-14T16:56:20.362Z,0
2016-04-14T16:56:30.440Z,0
2016-04-14T16:56:40.346Z,0
2016-04-14T16:56:50.346Z,0
2016-04-14T16:57:00.349Z,0
2016-04-14T16:57:10.396Z,0
2016-04-14T16:57:20.380Z,0
2016-04-14T16:57:30.380Z,0
2016-04-14T16:57:40.365Z,0
2016-04-14T16:57:50.365Z,0
2016-04-14T16:58:00.382Z,0
2016-04-14T16:58:10.382Z,0
2016-04-14T16:58:20.476Z,0
2016-04-14T16:58:30.382Z,0
2016-04-14T16:58:40.382Z,0
2016-04-14T16:58:50.382Z,0
2016-04-14T16:59:00.401Z,0
2016-04-14T16:59:10.385Z,0
2016-04-14T16:59:20.385Z,0
2016-04-14T16:59:30.401Z,0
2016-04-14T16:59:40.401Z,0
2016-04-14T16:59:50.557Z,0
2016-04-14T17:00:00.403Z,0
2016-04-14T17:00:10.403Z,0
2016-04-14T17:00:20.418Z,0
2016-04-14T17:00:30.418Z,0
2016-04-14T17:00:40.418Z,0
2016-04-14T17:00:50.418Z,0
2016-04-14T17:01:00.437Z,0
2016-04-14T17:01:10.437Z,0.1
2016-04-14T17:01:20.437Z,0
2016-04-14T17:01:30.437Z,0
2016-04-14T17:01:40.437Z,0
2016-04-14T17:01:50.437Z,0
2016-04-14T17:02:00.440Z,0
2016-04-14T17:02:10.456Z,0
2016-04-14T17:02:20.456Z,0
2016-04-14T17:02:30.456Z,0
2016-04-14T17:02:40.471Z,0.1
2016-04-14T17:02:50.471Z,0
2016-04-14T17:03:00.459Z,0
2016-04-14T17:03:10.474Z,0
2016-04-14T17:03:20.474Z,0
2016-04-14T17:03:30.521Z,0
2016-04-14T17:03:40.490Z,0
2016-04-14T17:03:50.490Z,0.1
2016-04-14T17:04:00.555Z,0.2
2016-04-14T17:04:10.493Z,0
2016-04-14T17:04:20.493Z,0
2016-04-14T17:04:30.509Z,0
2016-04-14T17:04:40.509Z,0
2016-04-14T17:04:50.509Z,0
2016-04-14T17:05:00.511Z,0.1
2016-04-14T17:05:10.511Z,0.1
2016-04-14T17:05:20.511Z,0
2016-04-14T17:05:30.526Z,0
2016-04-14T17:05:40.526Z,0
2016-04-14T17:05:50.511Z,0
2016-04-14T17:06:00.529Z,0
2016-04-14T17:06:10.529Z,0
2016-04-14T17:06:20.529Z,0
2016-04-14T17:06:30.592Z,0
2016-04-14T17:06:40.545Z,0
2016-04-14T17:06:50.545Z,0
2016-04-14T17:07:00.547Z,0
2016-04-14T17:07:10.594Z,0
2016-04-14T17:07:20.562Z,0
2016-04-14T17:07:30.562Z,0
2016-04-14T17:07:40.562Z,0
2016-04-14T17:07:50.578Z,0
2016-04-14T17:08:00.565Z,0
2016-04-14T17:08:10.581Z,0
2016-04-14T17:08:20.565Z,0
2016-04-14T17:08:30.597Z,0
2016-04-14T17:08:40.581Z,0
2016-04-14T17:08:50.581Z,0
2016-04-14T17:09:00.584Z,0
2016-04-14T17:09:10.584Z,0
2016-04-14T17:09:20.600Z,0
2016-04-14T17:09:30.615Z,0
2016-04-14T17:09:40.600Z,0
2016-04-14T17:09:50.600Z,0
2016-04-14T17:10:00.603Z,0
2016-04-14T17:10:10.618Z,0
2016-04-14T17:10:20.618Z,0
2016-04-14T17:10:30.618Z,0
2016-04-14T17:10:40.618Z,0
2016-04-14T17:10:50.618Z,0
2016-04-14T17:11:00.621Z,0
2016-04-14T17:11:10.637Z,0
2016-04-14T17:11:20.637Z,0.2
2016-04-14T17:11:30.637Z,0
2016-04-14T17:11:40.637Z,0
2016-04-14T17:11:50.637Z,0
2016-04-14T17:12:00.639Z,0
2016-04-14T17:12:10.655Z,0
2016-04-14T17:12:20.655Z,0
2016-04-14T17:12:30.655Z,0
2016-04-14T17:12:40.655Z,0
2016-04-14T17:12:50.670Z,0
2016-04-14T17:13:00.673Z,0
2016-04-14T17:13:10.579Z,0
2016-04-14T17:13:20.892Z,0
2016-04-14T17:13:30.704Z,0
2016-04-14T17:13:40.689Z,0
2016-04-14T17:13:50.689Z,0
2016-04-14T17:14:00.691Z,0
2016-04-14T17:14:10.706Z,0
2016-04-14T17:14:20.706Z,0
2016-04-14T17:14:30.691Z,0
2016-04-14T17:14:40.706Z,0
2016-04-14T17:14:50.753Z,0
2016-04-14T17:15:00.709Z,0
2016-04-14T17:15:10.756Z,0
2016-04-14T17:15:20.725Z,0
2016-04-14T17:15:30.725Z,0
2016-04-14T17:15:40.725Z,0
2016-04-14T17:15:50.725Z,0
2016-04-14T17:16:00.790Z,0
2016-04-14T17:16:10.743Z,0
2016-04-14T17:16:20.727Z,0
2016-04-14T17:16:30.743Z,0
2016-04-14T17:16:40.852Z,0
2016-04-14T17:16:50.993Z,0
2016-04-14T17:17:00.746Z,0
2016-04-14T17:17:10.761Z,0
2016-04-14T17:17:20.839Z,0
2016-04-14T17:17:30.808Z,0
2016-04-14T17:17:40.777Z,0
2016-04-14T17:17:51.027Z,0
2016-04-14T17:18:00.780Z,0
2016-04-14T17:18:10.983Z,0
2016-04-14T17:18:20.780Z,0
2016-04-14T17:18:30.796Z,0
2016-04-14T17:18:40.780Z,0
2016-04-14T17:18:50.796Z,0
2016-04-14T17:19:00.798Z,0
2016-04-14T17:19:10.798Z,0
2016-04-14T17:19:20.798Z,0
2016-04-14T17:19:30.798Z,0
2016-04-14T17:19:40.798Z,0
2016-04-14T17:19:50.798Z,0
2016-04-14T17:20:00.817Z,0
2016-04-14T17:20:10.833Z,0
2016-04-14T17:20:20.911Z,0
2016-04-14T17:20:30.817Z,0
2016-04-14T17:20:40.817Z,0
2016-04-14T17:20:50.833Z,0
2016-04-14T17:21:00.835Z,0
2016-04-14T17:21:10.835Z,0
2016-04-14T17:21:21.054Z,0
2016-04-14T17:21:30.882Z,0
2016-04-14T17:21:40.835Z,0
2016-04-14T17:21:50.850Z,0
2016-04-14T17:22:00.853Z,0
2016-04-14T17:22:10.853Z,0
2016-04-14T17:22:20.853Z,0
2016-04-14T17:22:30.853Z,0
2016-04-14T17:22:40.869Z,0
2016-04-14T17:22:50.869Z,0
2016-04-14T17:23:00.872Z,0.1
2016-04-14T17:23:10.731Z,0
2016-04-14T17:23:20.888Z,0
2016-04-14T17:23:30.872Z,0
2016-04-14T17:23:40.935Z,0
2016-04-14T17:23:50.888Z,0
2016-04-14T17:24:00.749Z,0
2016-04-14T17:24:10.890Z,0
2016-04-14T17:24:20.890Z,0
2016-04-14T17:24:30.983Z,0
2016-04-14T17:24:40.937Z,0
2016-04-14T17:24:50.905Z,0
2016-04-14T17:25:00.783Z,0
2016-04-14T17:25:10.908Z,0
2016-04-14T17:25:20.986Z,0
2016-04-14T17:25:30.924Z,0
2016-04-14T17:25:40.924Z,0
2016-04-14T17:25:50.924Z,0
2016-04-14T17:26:00.957Z,0
2016-04-14T17:26:10.942Z,0
2016-04-14T17:26:20.942Z,0
2016-04-14T17:26:30.942Z,0
2016-04-14T17:26:40.942Z,0
2016-04-14T17:26:50.942Z,0
2016-04-14T17:27:00.945Z,0
2016-04-14T17:27:10.945Z,0
2016-04-14T17:27:21.038Z,0
2016-04-14T17:27:30.976Z,0
2016-04-14T17:27:40.960Z,0
2016-04-14T17:27:50.960Z,0
2016-04-14T17:28:00.962Z,0
2016-04-14T17:28:10.993Z,0
2016-04-14T17:28:21.087Z,0
2016-04-14T17:28:31.056Z,0
2016-04-14T17:28:40.978Z,0
2016-04-14T17:28:50.978Z,0
2016-04-14T17:29:00.996Z,0
2016-04-14T17:29:10.996Z,0
2016-04-14T17:29:21.043Z,0
2016-04-14T17:29:31.012Z,0
2016-04-14T17:29:40.996Z,0
2016-04-14T17:29:50.996Z,0
2016-04-14T17:30:01.062Z,0
2016-04-14T17:30:11.062Z,0
2016-04-14T17:30:21.124Z,0
2016-04-14T17:30:31.015Z,0
2016-04-14T17:30:41.015Z,0
2016-04-14T17:30:51.015Z,0
2016-04-14T17:31:01.081Z,0
2016-04-14T17:31:11.034Z,0
2016-04-14T17:31:21.096Z,0
2016-04-14T17:31:30.877Z,0
2016-04-14T17:31:41.081Z,0
2016-04-14T17:31:51.049Z,0
2016-04-14T17:32:01.099Z,0
2016-04-14T17:32:11.099Z,0
2016-04-14T17:32:21.094Z,0
2016-04-14T17:32:31.110Z,0
2016-04-14T17:32:41.172Z,0
2016-04-14T17:32:51.126Z,0
2016-04-14T17:33:01.112Z,0
2016-04-14T17:33:11.268Z,0
2016-04-14T17:33:21.174Z,0
2016-04-14T17:33:31.081Z,0
2016-04-14T17:33:41.128Z,0
2016-04-14T17:33:51.096Z,0
2016-04-14T17:34:01.131Z,0
2016-04-14T17:34:11.099Z,0
2016-04-14T17:34:21.099Z,0
2016-04-14T17:34:31.099Z,0
2016-04-14T17:34:41.099Z,0
2016-04-14T17:34:51.115Z,0
2016-04-14T17:35:01.102Z,0
2016-04-14T17:35:11.102Z,0
2016-04-14T17:35:21.118Z,0
2016-04-14T17:35:31.118Z,0
2016-04-14T17:35:41.118Z,0
2016-04-14T17:35:51.118Z,0
2016-04-14T17:36:01.136Z,0
2016-04-14T17:36:11.136Z,0
2016-04-14T17:36:21.182Z,0
2016-04-14T17:36:31.136Z,0
2016-04-14T17:36:41.136Z,0
2016-04-14T17:36:51.151Z,0
2016-04-14T17:37:01.154Z,0
2016-04-14T17:37:11.154Z,0
2016-04-14T17:37:21.154Z,0
2016-04-14T17:37:31.154Z,0
2016-04-14T17:37:41.154Z,0
2016-04-14T17:37:51.154Z,0
2016-04-14T17:38:01.172Z,0
2016-04-14T17:38:11.172Z,0
2016-04-14T17:38:21.172Z,0
2016-04-14T17:38:31.172Z,0
2016-04-14T17:38:41.203Z,0
2016-04-14T17:38:51.187Z,0
2016-04-14T17:39:01.190Z,0
2016-04-14T17:39:11.175Z,0
2016-04-14T17:39:21.097Z,0
2016-04-14T17:39:31.190Z,0
2016-04-14T17:39:41.190Z,0
2016-04-14T17:39:51.206Z,0
2016-04-14T17:40:01.193Z,0
2016-04-14T17:40:11.209Z,0
2016-04-14T17:40:21.209Z,0
2016-04-14T17:40:31.209Z,0
2016-04-14T17:40:41.209Z,0
2016-04-14T17:40:51.225Z,0
2016-04-14T17:41:01.243Z,0
2016-04-14T17:41:11.228Z,0
2016-04-14T17:41:21.228Z,0
2016-04-14T17:41:31.243Z,0
2016-04-14T17:41:41.243Z,0
2016-04-14T17:41:51.243Z,0
2016-04-14T17:42:01.246Z,0
2016-04-14T17:42:11.403Z,0
2016-04-14T17:42:21.246Z,0
2016-04-14T17:42:31.262Z,0
2016-04-14T17:42:41.262Z,0
2016-04-14T17:42:51.262Z,0
2016-04-14T17:43:01.264Z,0
2016-04-14T17:43:11.295Z,0
2016-04-14T17:43:21.420Z,0
2016-04-14T17:43:31.264Z,0
2016-04-14T17:43:41.264Z,0
2016-04-14T17:43:51.280Z,0
2016-04-14T17:44:01.283Z,0
2016-04-14T17:44:11.283Z,0
2016-04-14T17:44:21.283Z,0
2016-04-14T17:44:31.298Z,0
2016-04-14T17:44:41.298Z,0
2016-04-14T17:44:51.298Z,0
2016-04-14T17:45:01.300Z,0
2016-04-14T17:45:11.597Z,0
2016-04-14T17:45:21.316Z,0
2016-04-14T17:45:31.316Z,0
2016-04-14T17:45:41.769Z,0
2016-04-14T17:45:51.925Z,0
2016-04-14T17:46:02.475Z,0
2016-04-14T17:46:11.334Z,0
2016-04-14T17:46:21.334Z,0
2016-04-14T17:46:31.334Z,0